sensor_id;sensor_type;location;lat;lon;timestamp;P1;durP1;ratioP1;P2;durP2;ratioP2
40022;SDS011;25713;-35.352;149.036;2023-11-21T00:00:24;2.47;;;1.33;;
40022;SDS011;25713;-35.352;149.036;2023-11-21T00:02:53;1.45;;;1.13;;
40022;SDS011;25713;-35.352;149.036;2023-11-21T00:05:23;3.03;;;1.40;;
40022;SDS011;25713;-35.352;149.036;2023-11-21T00:07:52;3.15;;;1.17;;
40022;SDS011;25713;-35.352;149.036;2023-11-21T00:10:25;3.63;;;1.38;;
40022;SDS011;25713;-35.352;149.036;2023-11-21T00:12:55;1.58;;;1.05;;
40022;SDS011;25713;-35.352;149.036;2023-11-21T00:15:24;2.72;;;1.20;;
40022;SDS011;25713;-35.352;149.036;2023-11-21T00:17:54;2.10;;;1.13;;
40022;SDS011;25713;-35.352;149.036;2023-11-21T00:20:23;2.05;;;1.17;;
40022;SDS011;25713;-35.352;149.036;2023-11-21T00:22:53;1.92;;;1.08;;
40022;SDS011;25713;-35.352;149.036;2023-11-21T00:25:24;1.42;;;1.20;;
40022;SDS011;25713;-35.352;149.036;2023-11-21T00:27:54;1.95;;;1.10;;
40022;SDS011;25713;-35.352;149.036;2023-11-21T00:30:23;1.40;;;1.30;;
40022;SDS011;25713;-35.352;149.036;2023-11-21T00:32:53;2.30;;;1.15;;
40022;SDS011;25713;-35.352;149.036;2023-11-21T00:35:22;2.30;;;1.42;;
40022;SDS011;25713;-35.352;149.036;2023-11-21T00:37:52;2.67;;;1.20;;
40022;SDS011;25713;-35.352;149.036;2023-11-21T00:40:21;2.42;;;1.48;;
40022;SDS011;25713;-35.352;149.036;2023-11-21T00:42:53;1.20;;;1.03;;
40022;SDS011;25713;-35.352;149.036;2023-11-21T00:45:22;1.23;;;1.08;;
40022;SDS011;25713;-35.352;149.036;2023-11-21T00:47:52;1.73;;;1.27;;
40022;SDS011;25713;-35.352;149.036;2023-11-21T00:50:22;3.78;;;1.35;;
40022;SDS011;25713;-35.352;149.036;2023-11-21T00:52:51;2.20;;;1.20;;
40022;SDS011;25713;-35.352;149.036;2023-11-21T00:55:21;1.85;;;1.08;;
40022;SDS011;25713;-35.352;149.036;2023-11-21T00:57:53;3.00;;;1.23;;
40022;SDS011;25713;-35.352;149.036;2023-11-21T01:00:22;1.90;;;1.10;;
40022;SDS011;25713;-35.352;149.036;2023-11-21T01:02:51;1.95;;;1.40;;
40022;SDS011;25713;-35.352;149.036;2023-11-21T01:05:21;3.10;;;1.48;;
40022;SDS011;25713;-35.352;149.036;2023-11-21T01:07:50;2.58;;;1.30;;
40022;SDS011;25713;-35.352;149.036;2023-11-21T01:10:20;2.92;;;1.40;;
40022;SDS011;25713;-35.352;149.036;2023-11-21T01:12:51;3.15;;;1.27;;
40022;SDS011;25713;-35.352;149.036;2023-11-21T01:15:21;1.75;;;1.13;;
40022;SDS011;25713;-35.352;149.036;2023-11-21T01:17:50;1.55;;;1.45;;
40022;SDS011;25713;-35.352;149.036;2023-11-21T01:20:21;1.77;;;1.40;;
40022;SDS011;25713;-35.352;149.036;2023-11-21T01:22:51;1.25;;;1.15;;
40022;SDS011;25713;-35.352;149.036;2023-11-21T01:25:21;1.30;;;1.20;;
40022;SDS011;25713;-35.352;149.036;2023-11-21T01:27:53;2.20;;;1.40;;
40022;SDS011;25713;-35.352;149.036;2023-11-21T01:30:22;1.45;;;1.35;;
40022;SDS011;25713;-35.352;149.036;2023-11-21T01:32:52;2.28;;;1.20;;
40022;SDS011;25713;-35.352;149.036;2023-11-21T01:35:21;4.57;;;1.20;;
40022;SDS011;25713;-35.352;149.036;2023-11-21T01:37:51;1.30;;;1.20;;
40022;SDS011;25713;-35.352;149.036;2023-11-21T01:40:20;2.65;;;1.30;;
40022;SDS011;25713;-35.352;149.036;2023-11-21T01:42:50;1.60;;;1.13;;
40022;SDS011;25713;-35.352;149.036;2023-11-21T01:45:23;3.40;;;1.38;;
40022;SDS011;25713;-35.352;149.036;2023-11-21T01:47:52;2.60;;;1.42;;
40022;SDS011;25713;-35.352;149.036;2023-11-21T01:50:22;2.35;;;1.13;;
40022;SDS011;25713;-35.352;149.036;2023-11-21T01:52:52;2.70;;;1.25;;
40022;SDS011;25713;-35.352;149.036;2023-11-21T01:55:23;2.55;;;1.13;;
40022;SDS011;25713;-35.352;149.036;2023-11-21T01:57:56;2.05;;;1.20;;
40022;SDS011;25713;-35.352;149.036;2023-11-21T02:00:26;1.80;;;1.33;;
40022;SDS011;25713;-35.352;149.036;2023-11-21T02:02:56;2.72;;;1.55;;
40022;SDS011;25713;-35.352;149.036;2023-11-21T02:05:26;4.32;;;1.40;;
40022;SDS011;25713;-35.352;149.036;2023-11-21T02:07:55;1.20;;;1.10;;
40022;SDS011;25713;-35.352;149.036;2023-11-21T02:10:25;1.30;;;1.17;;
40022;SDS011;25713;-35.352;149.036;2023-11-21T02:12:58;2.13;;;1.30;;
40022;SDS011;25713;-35.352;149.036;2023-11-21T02:15:27;1.75;;;1.30;;
40022;SDS011;25713;-35.352;149.036;2023-11-21T02:17:57;2.67;;;1.48;;
40022;SDS011;25713;-35.352;149.036;2023-11-21T02:20:27;1.75;;;1.40;;
40022;SDS011;25713;-35.352;149.036;2023-11-21T02:22:59;2.40;;;1.42;;
40022;SDS011;25713;-35.352;149.036;2023-11-21T02:25:28;2.50;;;1.30;;
40022;SDS011;25713;-35.352;149.036;2023-11-21T02:27:59;2.30;;;1.50;;
40022;SDS011;25713;-35.352;149.036;2023-11-21T02:30:31;1.42;;;1.30;;
40022;SDS011;25713;-35.352;149.036;2023-11-21T02:33:00;1.40;;;1.30;;
40022;SDS011;25713;-35.352;149.036;2023-11-21T02:35:29;2.15;;;1.25;;
40022;SDS011;25713;-35.352;149.036;2023-11-21T02:38:01;3.05;;;1.45;;
40022;SDS011;25713;-35.352;149.036;2023-11-21T02:40:31;1.73;;;1.27;;
40022;SDS011;25713;-35.352;149.036;2023-11-21T02:43:00;1.40;;;1.30;;
40022;SDS011;25713;-35.352;149.036;2023-11-21T02:45:30;1.45;;;1.35;;
40022;SDS011;25713;-35.352;149.036;2023-11-21T02:47:59;1.58;;;1.30;;
40022;SDS011;25713;-35.352;149.036;2023-11-21T02:50:29;1.40;;;1.30;;
40022;SDS011;25713;-35.352;149.036;2023-11-21T02:53:00;3.92;;;1.50;;
40022;SDS011;25713;-35.352;149.036;2023-11-21T02:55:30;1.70;;;1.40;;
40022;SDS011;25713;-35.352;149.036;2023-11-21T02:58:00;2.80;;;1.50;;
40022;SDS011;25713;-35.352;149.036;2023-11-21T03:00:29;2.58;;;1.42;;
40022;SDS011;25713;-35.352;149.036;2023-11-21T03:02:59;2.72;;;1.40;;
40022;SDS011;25713;-35.352;149.036;2023-11-21T03:05:28;1.63;;;1.23;;
40022;SDS011;25713;-35.352;149.036;2023-11-21T03:07:58;1.98;;;1.88;;
40022;SDS011;25713;-35.352;149.036;2023-11-21T03:10:30;1.52;;;1.10;;
40022;SDS011;25713;-35.352;149.036;2023-11-21T03:12:59;2.67;;;1.55;;
40022;SDS011;25713;-35.352;149.036;2023-11-21T03:15:29;1.52;;;1.40;;
40022;SDS011;25713;-35.352;149.036;2023-11-21T03:17:59;2.65;;;1.27;;
40022;SDS011;25713;-35.352;149.036;2023-11-21T03:20:28;1.63;;;1.52;;
40022;SDS011;25713;-35.352;149.036;2023-11-21T03:22:58;1.42;;;1.33;;
40022;SDS011;25713;-35.352;149.036;2023-11-21T03:25:30;2.33;;;1.33;;
40022;SDS011;25713;-35.352;149.036;2023-11-21T03:28:00;2.30;;;1.40;;
40022;SDS011;25713;-35.352;149.036;2023-11-21T03:30:30;1.90;;;1.45;;
40022;SDS011;25713;-35.352;149.036;2023-11-21T03:33:00;2.20;;;1.20;;
40022;SDS011;25713;-35.352;149.036;2023-11-21T03:35:29;1.85;;;1.42;;
40022;SDS011;25713;-35.352;149.036;2023-11-21T03:37:58;2.30;;;1.20;;
40022;SDS011;25713;-35.352;149.036;2023-11-21T03:40:31;2.03;;;1.20;;
40022;SDS011;25713;-35.352;149.036;2023-11-21T03:43:02;2.10;;;1.55;;
40022;SDS011;25713;-35.352;149.036;2023-11-21T03:45:31;2.67;;;1.42;;
40022;SDS011;25713;-35.352;149.036;2023-11-21T03:48:01;2.00;;;1.30;;
40022;SDS011;25713;-35.352;149.036;2023-11-21T03:50:31;2.88;;;1.33;;
40022;SDS011;25713;-35.352;149.036;2023-11-21T03:53:03;2.60;;;1.58;;
40022;SDS011;25713;-35.352;149.036;2023-11-21T03:55:33;1.25;;;1.15;;
40022;SDS011;25713;-35.352;149.036;2023-11-21T03:58:02;1.40;;;1.30;;
40022;SDS011;25713;-35.352;149.036;2023-11-21T04:00:32;4.53;;;1.50;;
40022;SDS011;25713;-35.352;149.036;2023-11-21T04:03:01;1.10;;;1.00;;
40022;SDS011;25713;-35.352;149.036;2023-11-21T04:05:31;1.25;;;1.10;;
40022;SDS011;25713;-35.352;149.036;2023-11-21T04:08:04;1.30;;;1.20;;
40022;SDS011;25713;-35.352;149.036;2023-11-21T04:10:34;1.92;;;1.30;;
40022;SDS011;25713;-35.352;149.036;2023-11-21T04:13:03;3.55;;;1.40;;
40022;SDS011;25713;-35.352;149.036;2023-11-21T04:15:32;1.48;;;1.20;;
40022;SDS011;25713;-35.352;149.036;2023-11-21T04:18:02;2.42;;;1.45;;
40022;SDS011;25713;-35.352;149.036;2023-11-21T04:20:32;1.92;;;1.33;;
40022;SDS011;25713;-35.352;149.036;2023-11-21T04:23:05;1.67;;;1.25;;
40022;SDS011;25713;-35.352;149.036;2023-11-21T04:25:34;1.73;;;1.23;;
40022;SDS011;25713;-35.352;149.036;2023-11-21T04:28:03;2.25;;;1.30;;
40022;SDS011;25713;-35.352;149.036;2023-11-21T04:30:33;2.35;;;1.20;;
40022;SDS011;25713;-35.352;149.036;2023-11-21T04:33:03;2.15;;;1.40;;
40022;SDS011;25713;-35.352;149.036;2023-11-21T04:35:32;1.75;;;1.20;;
40022;SDS011;25713;-35.352;149.036;2023-11-21T04:38:05;2.72;;;1.48;;
40022;SDS011;25713;-35.352;149.036;2023-11-21T04:40:34;2.42;;;1.15;;
40022;SDS011;25713;-35.352;149.036;2023-11-21T04:43:04;1.30;;;1.20;;
40022;SDS011;25713;-35.352;149.036;2023-11-21T04:45:33;1.55;;;1.20;;
40022;SDS011;25713;-35.352;149.036;2023-11-21T04:48:03;1.70;;;1.23;;
40022;SDS011;25713;-35.352;149.036;2023-11-21T04:50:33;1.17;;;1.05;;
40022;SDS011;25713;-35.352;149.036;2023-11-21T04:53:06;2.80;;;1.38;;
40022;SDS011;25713;-35.352;149.036;2023-11-21T04:55:35;1.67;;;1.20;;
40022;SDS011;25713;-35.352;149.036;2023-11-21T04:58:04;2.80;;;1.20;;
40022;SDS011;25713;-35.352;149.036;2023-11-21T05:00:34;1.35;;;1.13;;
40022;SDS011;25713;-35.352;149.036;2023-11-21T05:03:03;1.20;;;1.10;;
40022;SDS011;25713;-35.352;149.036;2023-11-21T05:05:33;2.08;;;1.10;;
40022;SDS011;25713;-35.352;149.036;2023-11-21T05:08:05;1.23;;;0.98;;
40022;SDS011;25713;-35.352;149.036;2023-11-21T05:10:34;2.15;;;1.20;;
40022;SDS011;25713;-35.352;149.036;2023-11-21T05:13:04;1.20;;;1.10;;
40022;SDS011;25713;-35.352;149.036;2023-11-21T05:15:33;2.65;;;1.13;;
40022;SDS011;25713;-35.352;149.036;2023-11-21T05:18:02;2.60;;;1.27;;
40022;SDS011;25713;-35.352;149.036;2023-11-21T05:20:32;2.03;;;1.33;;
40022;SDS011;25713;-35.352;149.036;2023-11-21T05:23:02;2.13;;;1.20;;
40022;SDS011;25713;-35.352;149.036;2023-11-21T05:25:33;1.67;;;1.27;;
40022;SDS011;25713;-35.352;149.036;2023-11-21T05:28:03;2.17;;;1.20;;
40022;SDS011;25713;-35.352;149.036;2023-11-21T05:30:32;1.70;;;1.13;;
40022;SDS011;25713;-35.352;149.036;2023-11-21T05:33:02;1.98;;;1.27;;
40022;SDS011;25713;-35.352;149.036;2023-11-21T05:35:31;2.05;;;1.10;;
40022;SDS011;25713;-35.352;149.036;2023-11-21T05:38:01;2.08;;;1.27;;
40022;SDS011;25713;-35.352;149.036;2023-11-21T05:40:32;3.40;;;1.23;;
40022;SDS011;25713;-35.352;149.036;2023-11-21T05:43:01;1.20;;;1.10;;
40022;SDS011;25713;-35.352;149.036;2023-11-21T05:45:31;1.65;;;1.38;;
40022;SDS011;25713;-35.352;149.036;2023-11-21T05:48:00;1.40;;;1.30;;
40022;SDS011;25713;-35.352;149.036;2023-11-21T05:50:30;1.92;;;1.00;;
40022;SDS011;25713;-35.352;149.036;2023-11-21T05:53:00;1.33;;;1.23;;
40022;SDS011;25713;-35.352;149.036;2023-11-21T05:55:29;2.03;;;1.35;;
40022;SDS011;25713;-35.352;149.036;2023-11-21T05:58:00;1.90;;;1.33;;
40022;SDS011;25713;-35.352;149.036;2023-11-21T06:00:30;3.10;;;1.30;;
40022;SDS011;25713;-35.352;149.036;2023-11-21T06:02:59;2.03;;;1.27;;
40022;SDS011;25713;-35.352;149.036;2023-11-21T06:05:29;2.30;;;1.35;;
40022;SDS011;25713;-35.352;149.036;2023-11-21T06:07:58;3.70;;;1.30;;
40022;SDS011;25713;-35.352;149.036;2023-11-21T06:10:27;1.33;;;1.23;;
40022;SDS011;25713;-35.352;149.036;2023-11-21T06:12:59;2.35;;;1.60;;
40022;SDS011;25713;-35.352;149.036;2023-11-21T06:15:28;2.87;;;1.70;;
40022;SDS011;25713;-35.352;149.036;2023-11-21T06:17:58;2.45;;;1.70;;
40022;SDS011;25713;-35.352;149.036;2023-11-21T06:20:27;1.67;;;1.52;;
40022;SDS011;25713;-35.352;149.036;2023-11-21T06:22:57;2.95;;;1.83;;
40022;SDS011;25713;-35.352;149.036;2023-11-21T06:25:26;1.67;;;1.45;;
40022;SDS011;25713;-35.352;149.036;2023-11-21T06:27:56;1.98;;;1.60;;
40022;SDS011;25713;-35.352;149.036;2023-11-21T06:30:27;1.92;;;1.70;;
40022;SDS011;25713;-35.352;149.036;2023-11-21T06:32:57;2.55;;;1.88;;
40022;SDS011;25713;-35.352;149.036;2023-11-21T06:35:27;2.08;;;1.70;;
40022;SDS011;25713;-35.352;149.036;2023-11-21T06:37:56;1.80;;;1.70;;
40022;SDS011;25713;-35.352;149.036;2023-11-21T06:40:26;2.85;;;2.00;;
40022;SDS011;25713;-35.352;149.036;2023-11-21T06:42:55;2.50;;;1.83;;
40022;SDS011;25713;-35.352;149.036;2023-11-21T06:45:27;2.33;;;1.58;;
40022;SDS011;25713;-35.352;149.036;2023-11-21T06:47:57;3.63;;;1.88;;
40022;SDS011;25713;-35.352;149.036;2023-11-21T06:50:26;3.53;;;1.98;;
40022;SDS011;25713;-35.352;149.036;2023-11-21T06:52:56;2.72;;;1.63;;
40022;SDS011;25713;-35.352;149.036;2023-11-21T06:55:25;3.28;;;1.77;;
40022;SDS011;25713;-35.352;149.036;2023-11-21T06:57:55;2.92;;;1.90;;
40022;SDS011;25713;-35.352;149.036;2023-11-21T07:00:27;2.50;;;1.80;;
40022;SDS011;25713;-35.352;149.036;2023-11-21T07:02:58;3.05;;;1.48;;
40022;SDS011;25713;-35.352;149.036;2023-11-21T07:05:27;2.35;;;1.70;;
40022;SDS011;25713;-35.352;149.036;2023-11-21T07:07:57;3.15;;;1.70;;
40022;SDS011;25713;-35.352;149.036;2023-11-21T07:10:26;5.00;;;1.60;;
40022;SDS011;25713;-35.352;149.036;2023-11-21T07:12:56;2.10;;;1.45;;
40022;SDS011;25713;-35.352;149.036;2023-11-21T07:15:28;3.53;;;1.58;;
40022;SDS011;25713;-35.352;149.036;2023-11-21T07:17:58;2.17;;;1.60;;
40022;SDS011;25713;-35.352;149.036;2023-11-21T07:20:27;1.98;;;1.60;;
40022;SDS011;25713;-35.352;149.036;2023-11-21T07:22:57;2.65;;;1.40;;
40022;SDS011;25713;-35.352;149.036;2023-11-21T07:25:26;1.60;;;1.45;;
40022;SDS011;25713;-35.352;149.036;2023-11-21T07:27:56;2.83;;;1.48;;
40022;SDS011;25713;-35.352;149.036;2023-11-21T07:30:29;4.35;;;1.30;;
40022;SDS011;25713;-35.352;149.036;2023-11-21T07:32:58;5.40;;;1.30;;
40022;SDS011;25713;-35.352;149.036;2023-11-21T07:35:29;1.75;;;1.35;;
40022;SDS011;25713;-35.352;149.036;2023-11-21T07:37:59;2.22;;;1.30;;
40022;SDS011;25713;-35.352;149.036;2023-11-21T07:40:28;3.15;;;1.10;;
40022;SDS011;25713;-35.352;149.036;2023-11-21T07:42:58;4.43;;;1.30;;
40022;SDS011;25713;-35.352;149.036;2023-11-21T07:45:31;1.83;;;1.10;;
40022;SDS011;25713;-35.352;149.036;2023-11-21T07:48:00;3.03;;;1.30;;
40022;SDS011;25713;-35.352;149.036;2023-11-21T07:50:30;1.92;;;1.08;;
40022;SDS011;25713;-35.352;149.036;2023-11-21T07:52:59;3.05;;;1.10;;
40022;SDS011;25713;-35.352;149.036;2023-11-21T07:55:29;2.75;;;1.23;;
40022;SDS011;25713;-35.352;149.036;2023-11-21T07:57:59;1.95;;;1.30;;
40022;SDS011;25713;-35.352;149.036;2023-11-21T08:00:30;1.88;;;1.08;;
40022;SDS011;25713;-35.352;149.036;2023-11-21T08:03:00;1.90;;;1.10;;
40022;SDS011;25713;-35.352;149.036;2023-11-21T08:05:29;1.75;;;1.15;;
40022;SDS011;25713;-35.352;149.036;2023-11-21T08:07:58;1.92;;;1.00;;
40022;SDS011;25713;-35.352;149.036;2023-11-21T08:10:28;2.25;;;1.13;;
40022;SDS011;25713;-35.352;149.036;2023-11-21T08:12:58;2.05;;;1.00;;
40022;SDS011;25713;-35.352;149.036;2023-11-21T08:15:27;2.05;;;1.38;;
40022;SDS011;25713;-35.352;149.036;2023-11-21T08:17:58;1.42;;;0.90;;
40022;SDS011;25713;-35.352;149.036;2023-11-21T08:20:28;1.42;;;1.10;;
40022;SDS011;25713;-35.352;149.036;2023-11-21T08:22:57;1.00;;;0.95;;
40022;SDS011;25713;-35.352;149.036;2023-11-21T08:25:26;1.63;;;1.08;;
40022;SDS011;25713;-35.352;149.036;2023-11-21T08:27:56;1.38;;;0.85;;
40022;SDS011;25713;-35.352;149.036;2023-11-21T08:30:25;2.17;;;1.00;;
40022;SDS011;25713;-35.352;149.036;2023-11-21T08:32:57;1.88;;;1.02;;
40022;SDS011;25713;-35.352;149.036;2023-11-21T08:35:29;1.83;;;1.10;;
40022;SDS011;25713;-35.352;149.036;2023-11-21T08:38:01;2.03;;;1.25;;
40022;SDS011;25713;-35.352;149.036;2023-11-21T08:40:31;2.00;;;1.08;;
40022;SDS011;25713;-35.352;149.036;2023-11-21T08:43:02;2.25;;;0.98;;
40022;SDS011;25713;-35.352;149.036;2023-11-21T08:45:31;1.10;;;0.90;;
40022;SDS011;25713;-35.352;149.036;2023-11-21T08:48:04;1.50;;;1.20;;
40022;SDS011;25713;-35.352;149.036;2023-11-21T08:50:34;1.83;;;1.10;;
40022;SDS011;25713;-35.352;149.036;2023-11-21T08:53:03;1.33;;;1.10;;
40022;SDS011;25713;-35.352;149.036;2023-11-21T08:55:32;2.22;;;1.05;;
40022;SDS011;25713;-35.352;149.036;2023-11-21T08:58:02;2.00;;;1.10;;
40022;SDS011;25713;-35.352;149.036;2023-11-21T09:00:32;1.20;;;1.10;;
40022;SDS011;25713;-35.352;149.036;2023-11-21T09:03:05;1.60;;;1.13;;
40022;SDS011;25713;-35.352;149.036;2023-11-21T09:05:34;2.28;;;1.13;;
40022;SDS011;25713;-35.352;149.036;2023-11-21T09:08:05;2.70;;;1.10;;
40022;SDS011;25713;-35.352;149.036;2023-11-21T09:10:35;2.97;;;1.10;;
40022;SDS011;25713;-35.352;149.036;2023-11-21T09:13:05;2.55;;;1.10;;
40022;SDS011;25713;-35.352;149.036;2023-11-21T09:15:34;5.38;;;1.25;;
40022;SDS011;25713;-35.352;149.036;2023-11-21T09:18:06;2.83;;;1.40;;
40022;SDS011;25713;-35.352;149.036;2023-11-21T09:20:35;3.60;;;1.20;;
40022;SDS011;25713;-35.352;149.036;2023-11-21T09:23:05;1.63;;;1.20;;
40022;SDS011;25713;-35.352;149.036;2023-11-21T09:25:34;1.13;;;1.00;;
40022;SDS011;25713;-35.352;149.036;2023-11-21T09:28:13;2.35;;;1.10;;
40022;SDS011;25713;-35.352;149.036;2023-11-21T09:30:42;1.83;;;1.20;;
40022;SDS011;25713;-35.352;149.036;2023-11-21T09:33:14;1.60;;;1.10;;
40022;SDS011;25713;-35.352;149.036;2023-11-21T09:35:44;3.28;;;1.42;;
40022;SDS011;25713;-35.352;149.036;2023-11-21T09:38:13;1.63;;;1.40;;
40022;SDS011;25713;-35.352;149.036;2023-11-21T09:40:43;3.72;;;2.00;;
40022;SDS011;25713;-35.352;149.036;2023-11-21T09:43:15;3.35;;;2.85;;
40022;SDS011;25713;-35.352;149.036;2023-11-21T09:45:46;2.10;;;1.52;;
40022;SDS011;25713;-35.352;149.036;2023-11-21T09:48:22;2.80;;;1.75;;
40022;SDS011;25713;-35.352;149.036;2023-11-21T09:50:56;2.13;;;1.67;;
40022;SDS011;25713;-35.352;149.036;2023-11-21T09:53:27;2.70;;;1.80;;
40022;SDS011;25713;-35.352;149.036;2023-11-21T09:56:00;2.30;;;2.10;;
40022;SDS011;25713;-35.352;149.036;2023-11-21T09:58:29;2.22;;;1.60;;
40022;SDS011;25713;-35.352;149.036;2023-11-21T10:00:59;2.47;;;1.60;;
40022;SDS011;25713;-35.352;149.036;2023-11-21T10:03:31;2.60;;;1.60;;
40022;SDS011;25713;-35.352;149.036;2023-11-21T10:06:04;2.33;;;1.80;;
40022;SDS011;25713;-35.352;149.036;2023-11-21T10:08:35;2.55;;;1.88;;
40022;SDS011;25713;-35.352;149.036;2023-11-21T10:11:05;2.58;;;1.75;;
40022;SDS011;25713;-35.352;149.036;2023-11-21T10:13:38;3.47;;;1.63;;
40022;SDS011;25713;-35.352;149.036;2023-11-21T10:16:08;1.95;;;1.60;;
40022;SDS011;25713;-35.352;149.036;2023-11-21T10:18:45;2.38;;;1.80;;
40022;SDS011;25713;-35.352;149.036;2023-11-21T10:21:15;1.70;;;1.55;;
40022;SDS011;25713;-35.352;149.036;2023-11-21T10:23:45;1.58;;;1.40;;
40022;SDS011;25713;-35.352;149.036;2023-11-21T10:26:15;2.13;;;1.52;;
40022;SDS011;25713;-35.352;149.036;2023-11-21T10:28:55;3.05;;;1.60;;
40022;SDS011;25713;-35.352;149.036;2023-11-21T10:31:25;2.00;;;1.60;;
40022;SDS011;25713;-35.352;149.036;2023-11-21T10:33:59;2.47;;;1.67;;
40022;SDS011;25713;-35.352;149.036;2023-11-21T10:36:42;1.77;;;1.50;;
40022;SDS011;25713;-35.352;149.036;2023-11-21T10:39:14;1.90;;;1.60;;
40022;SDS011;25713;-35.352;149.036;2023-11-21T10:41:44;3.55;;;1.60;;
40022;SDS011;25713;-35.352;149.036;2023-11-21T10:44:14;2.70;;;1.60;;
40022;SDS011;25713;-35.352;149.036;2023-11-21T10:46:44;2.30;;;1.30;;
40022;SDS011;25713;-35.352;149.036;2023-11-21T10:49:16;2.47;;;1.58;;
40022;SDS011;25713;-35.352;149.036;2023-11-21T10:51:46;3.30;;;1.80;;
40022;SDS011;25713;-35.352;149.036;2023-11-21T10:54:17;5.05;;;1.52;;
40022;SDS011;25713;-35.352;149.036;2023-11-21T10:56:48;1.77;;;1.40;;
40022;SDS011;25713;-35.352;149.036;2023-11-21T10:59:18;1.50;;;1.38;;
40022;SDS011;25713;-35.352;149.036;2023-11-21T11:01:48;1.88;;;1.15;;
40022;SDS011;25713;-35.352;149.036;2023-11-21T11:04:22;1.50;;;1.20;;
40022;SDS011;25713;-35.352;149.036;2023-11-21T11:06:54;1.35;;;1.25;;
40022;SDS011;25713;-35.352;149.036;2023-11-21T11:09:25;2.95;;;1.30;;
40022;SDS011;25713;-35.352;149.036;2023-11-21T11:11:59;1.52;;;1.10;;
40022;SDS011;25713;-35.352;149.036;2023-11-21T11:14:30;1.63;;;1.20;;
40022;SDS011;25713;-35.352;149.036;2023-11-21T11:16:59;2.78;;;1.20;;
40022;SDS011;25713;-35.352;149.036;2023-11-21T11:19:33;2.38;;;1.30;;
40022;SDS011;25713;-35.352;149.036;2023-11-21T11:22:08;1.30;;;1.10;;
40022;SDS011;25713;-35.352;149.036;2023-11-21T11:24:54;1.95;;;1.20;;
40022;SDS011;25713;-35.352;149.036;2023-11-21T11:27:44;1.40;;;1.10;;
40022;SDS011;25713;-35.352;149.036;2023-11-21T11:30:26;1.92;;;1.08;;
40022;SDS011;25713;-35.352;149.036;2023-11-21T11:33:06;2.45;;;1.05;;
40022;SDS011;25713;-35.352;149.036;2023-11-21T11:35:46;2.88;;;1.30;;
40022;SDS011;25713;-35.352;149.036;2023-11-21T11:38:22;1.63;;;1.20;;
40022;SDS011;25713;-35.352;149.036;2023-11-21T11:40:54;2.28;;;1.35;;
40022;SDS011;25713;-35.352;149.036;2023-11-21T11:43:27;1.20;;;1.05;;
40022;SDS011;25713;-35.352;149.036;2023-11-21T11:45:58;1.20;;;1.10;;
40022;SDS011;25713;-35.352;149.036;2023-11-21T11:48:30;2.45;;;1.10;;
40022;SDS011;25713;-35.352;149.036;2023-11-21T11:51:09;2.50;;;1.33;;
40022;SDS011;25713;-35.352;149.036;2023-11-21T11:53:40;1.20;;;1.10;;
40022;SDS011;25713;-35.352;149.036;2023-11-21T11:58:57;2.05;;;1.08;;
40022;SDS011;25713;-35.352;149.036;2023-11-21T12:01:28;1.45;;;1.10;;
40022;SDS011;25713;-35.352;149.036;2023-11-21T12:06:56;1.60;;;1.10;;
40022;SDS011;25713;-35.352;149.036;2023-11-21T12:09:27;3.17;;;1.05;;
40022;SDS011;25713;-35.352;149.036;2023-11-21T12:11:59;1.55;;;1.38;;
40022;SDS011;25713;-35.352;149.036;2023-11-21T12:14:30;1.38;;;1.10;;
40022;SDS011;25713;-35.352;149.036;2023-11-21T12:17:02;1.15;;;1.00;;
40022;SDS011;25713;-35.352;149.036;2023-11-21T12:19:32;2.72;;;1.30;;
40022;SDS011;25713;-35.352;149.036;2023-11-21T12:22:05;1.65;;;1.10;;
40022;SDS011;25713;-35.352;149.036;2023-11-21T12:24:34;1.55;;;1.10;;
40022;SDS011;25713;-35.352;149.036;2023-11-21T12:27:04;1.52;;;1.20;;
40022;SDS011;25713;-35.352;149.036;2023-11-21T12:29:33;2.67;;;1.30;;
40022;SDS011;25713;-35.352;149.036;2023-11-21T12:32:03;2.28;;;1.30;;
40022;SDS011;25713;-35.352;149.036;2023-11-21T12:34:32;1.10;;;0.90;;
40022;SDS011;25713;-35.352;149.036;2023-11-21T12:37:04;1.40;;;1.10;;
40022;SDS011;25713;-35.352;149.036;2023-11-21T12:39:33;2.07;;;0.90;;
40022;SDS011;25713;-35.352;149.036;2023-11-21T12:42:03;1.05;;;0.95;;
40022;SDS011;25713;-35.352;149.036;2023-11-21T12:44:33;1.35;;;1.10;;
40022;SDS011;25713;-35.352;149.036;2023-11-21T12:47:02;1.20;;;1.02;;
40022;SDS011;25713;-35.352;149.036;2023-11-21T12:49:35;1.35;;;1.00;;
40022;SDS011;25713;-35.352;149.036;2023-11-21T12:52:11;1.33;;;1.20;;
40022;SDS011;25713;-35.352;149.036;2023-11-21T12:54:41;1.23;;;0.93;;
40022;SDS011;25713;-35.352;149.036;2023-11-21T12:57:11;2.72;;;1.20;;
40022;SDS011;25713;-35.352;149.036;2023-11-21T12:59:40;1.40;;;1.20;;
40022;SDS011;25713;-35.352;149.036;2023-11-21T13:02:13;1.73;;;1.00;;
40022;SDS011;25713;-35.352;149.036;2023-11-21T13:04:42;2.78;;;1.00;;
40022;SDS011;25713;-35.352;149.036;2023-11-21T13:07:22;2.20;;;1.10;;
40022;SDS011;25713;-35.352;149.036;2023-11-21T13:09:52;2.35;;;1.10;;
40022;SDS011;25713;-35.352;149.036;2023-11-21T13:12:24;1.38;;;1.00;;
40022;SDS011;25713;-35.352;149.036;2023-11-21T13:14:53;1.02;;;0.93;;
40022;SDS011;25713;-35.352;149.036;2023-11-21T13:17:23;1.60;;;1.10;;
40022;SDS011;25713;-35.352;149.036;2023-11-21T13:19:53;1.25;;;1.10;;
40022;SDS011;25713;-35.352;149.036;2023-11-21T13:22:25;2.70;;;1.13;;
40022;SDS011;25713;-35.352;149.036;2023-11-21T13:24:55;2.67;;;1.00;;
40022;SDS011;25713;-35.352;149.036;2023-11-21T13:27:24;1.10;;;1.00;;
40022;SDS011;25713;-35.352;149.036;2023-11-21T13:29:54;1.55;;;1.10;;
40022;SDS011;25713;-35.352;149.036;2023-11-21T13:32:23;2.67;;;1.45;;
40022;SDS011;25713;-35.352;149.036;2023-11-21T13:34:53;1.85;;;1.00;;
40022;SDS011;25713;-35.352;149.036;2023-11-21T13:37:26;1.70;;;1.30;;
40022;SDS011;25713;-35.352;149.036;2023-11-21T13:39:55;1.30;;;1.10;;
40022;SDS011;25713;-35.352;149.036;2023-11-21T13:42:25;2.08;;;1.17;;
40022;SDS011;25713;-35.352;149.036;2023-11-21T13:44:56;1.02;;;0.90;;
40022;SDS011;25713;-35.352;149.036;2023-11-21T13:47:26;1.88;;;1.10;;
40022;SDS011;25713;-35.352;149.036;2023-11-21T13:49:56;2.22;;;0.93;;
40022;SDS011;25713;-35.352;149.036;2023-11-21T13:52:29;2.50;;;1.10;;
40022;SDS011;25713;-35.352;149.036;2023-11-21T13:54:58;1.02;;;0.93;;
40022;SDS011;25713;-35.352;149.036;2023-11-21T13:57:27;1.17;;;0.95;;
40022;SDS011;25713;-35.352;149.036;2023-11-21T13:59:57;1.52;;;1.00;;
40022;SDS011;25713;-35.352;149.036;2023-11-21T14:02:26;1.40;;;1.10;;
40022;SDS011;25713;-35.352;149.036;2023-11-21T14:04:56;1.23;;;0.85;;
40022;SDS011;25713;-35.352;149.036;2023-11-21T14:07:28;2.40;;;1.20;;
40022;SDS011;25713;-35.352;149.036;2023-11-21T14:09:58;1.55;;;0.90;;
40022;SDS011;25713;-35.352;149.036;2023-11-21T14:12:28;1.10;;;1.00;;
40022;SDS011;25713;-35.352;149.036;2023-11-21T14:14:57;1.25;;;1.13;;
40022;SDS011;25713;-35.352;149.036;2023-11-21T14:17:27;0.90;;;0.80;;
40022;SDS011;25713;-35.352;149.036;2023-11-21T14:19:56;1.17;;;0.85;;
40022;SDS011;25713;-35.352;149.036;2023-11-21T14:22:28;1.23;;;1.00;;
40022;SDS011;25713;-35.352;149.036;2023-11-21T14:24:57;1.45;;;0.82;;
40022;SDS011;25713;-35.352;149.036;2023-11-21T14:27:27;1.00;;;0.90;;
40022;SDS011;25713;-35.352;149.036;2023-11-21T14:29:56;0.95;;;0.93;;
40022;SDS011;25713;-35.352;149.036;2023-11-21T14:32:26;0.80;;;0.80;;